sensor_id;sensor_type;location;lat;lon;timestamp;P1;durP1;ratioP1;P2;durP2;ratioP2
43540;SDS011;29549;40.386;-3.710;2023-11-19T00:00:01;10.68;;;9.40;;
43540;SDS011;29549;40.386;-3.710;2023-11-19T00:00:14;11.68;;;9.57;;
43540;SDS011;29549;40.386;-3.710;2023-11-19T00:00:26;13.07;;;9.98;;
43540;SDS011;29549;40.386;-3.710;2023-11-19T00:00:37;13.05;;;10.38;;
43540;SDS011;29549;40.386;-3.710;2023-11-19T00:00:47;12.77;;;10.55;;
43540;SDS011;29549;40.386;-3.710;2023-11-19T00:00:58;12.25;;;10.27;;
43540;SDS011;29549;40.386;-3.710;2023-11-19T00:01:09;12.20;;;10.15;;
43540;SDS011;29549;40.386;-3.710;2023-11-19T00:01:20;11.57;;;9.95;;
43540;SDS011;29549;40.386;-3.710;2023-11-19T00:01:30;10.73;;;9.63;;
43540;SDS011;29549;40.386;-3.710;2023-11-19T00:01:42;10.65;;;9.50;;
43540;SDS011;29549;40.386;-3.710;2023-11-19T00:01:53;10.48;;;9.38;;
43540;SDS011;29549;40.386;-3.710;2023-11-19T00:02:04;10.63;;;9.52;;
43540;SDS011;29549;40.386;-3.710;2023-11-19T00:02:14;10.23;;;9.13;;
43540;SDS011;29549;40.386;-3.710;2023-11-19T00:02:25;11.03;;;9.37;;
43540;SDS011;29549;40.386;-3.710;2023-11-19T00:02:37;11.35;;;9.50;;
43540;SDS011;29549;40.386;-3.710;2023-11-19T00:02:49;12.88;;;9.90;;
43540;SDS011;29549;40.386;-3.710;2023-11-19T00:02:59;12.77;;;9.98;;
43540;SDS011;29549;40.386;-3.710;2023-11-19T00:03:11;12.10;;;10.18;;
43540;SDS011;29549;40.386;-3.710;2023-11-19T00:03:23;10.73;;;9.63;;
43540;SDS011;29549;40.386;-3.710;2023-11-19T00:03:33;10.60;;;9.50;;
43540;SDS011;29549;40.386;-3.710;2023-11-19T00:03:45;11.45;;;9.63;;
43540;SDS011;29549;40.386;-3.710;2023-11-19T00:03:55;12.32;;;9.65;;
43540;SDS011;29549;40.386;-3.710;2023-11-19T00:04:06;13.07;;;9.85;;
43540;SDS011;29549;40.386;-3.710;2023-11-19T00:04:18;11.07;;;9.88;;
43540;SDS011;29549;40.386;-3.710;2023-11-19T00:04:29;11.93;;;10.30;;
43540;SDS011;29549;40.386;-3.710;2023-11-19T00:04:40;11.68;;;10.35;;
43540;SDS011;29549;40.386;-3.710;2023-11-19T00:04:51;12.73;;;10.47;;
43540;SDS011;29549;40.386;-3.710;2023-11-19T00:05:01;11.48;;;10.23;;
43540;SDS011;29549;40.386;-3.710;2023-11-19T00:05:12;11.73;;;10.27;;
43540;SDS011;29549;40.386;-3.710;2023-11-19T00:05:23;11.45;;;10.25;;
43540;SDS011;29549;40.386;-3.710;2023-11-19T00:05:34;12.18;;;10.60;;
43540;SDS011;29549;40.386;-3.710;2023-11-19T00:05:45;11.68;;;10.48;;
43540;SDS011;29549;40.386;-3.710;2023-11-19T00:05:56;11.65;;;10.13;;
43540;SDS011;29549;40.386;-3.710;2023-11-19T00:06:06;11.23;;;9.57;;
43540;SDS011;29549;40.386;-3.710;2023-11-19T00:06:19;13.07;;;10.00;;
43540;SDS011;29549;40.386;-3.710;2023-11-19T00:06:30;13.90;;;10.33;;
43540;SDS011;29549;40.386;-3.710;2023-11-19T00:06:41;13.10;;;10.15;;
43540;SDS011;29549;40.386;-3.710;2023-11-19T00:06:52;12.32;;;9.75;;
43540;SDS011;29549;40.386;-3.710;2023-11-19T00:07:02;11.80;;;9.68;;
43540;SDS011;29549;40.386;-3.710;2023-11-19T00:07:15;12.25;;;9.30;;
43540;SDS011;29549;40.386;-3.710;2023-11-19T00:07:26;13.45;;;9.85;;
43540;SDS011;29549;40.386;-3.710;2023-11-19T00:07:37;13.18;;;9.90;;
43540;SDS011;29549;40.386;-3.710;2023-11-19T00:07:51;13.38;;;10.52;;
43540;SDS011;29549;40.386;-3.710;2023-11-19T00:08:02;13.35;;;10.18;;
43540;SDS011;29549;40.386;-3.710;2023-11-19T00:08:12;13.57;;;10.18;;
43540;SDS011;29549;40.386;-3.710;2023-11-19T00:08:23;13.25;;;10.05;;
43540;SDS011;29549;40.386;-3.710;2023-11-19T00:08:34;12.57;;;9.98;;
43540;SDS011;29549;40.386;-3.710;2023-11-19T00:08:45;11.52;;;10.05;;
43540;SDS011;29549;40.386;-3.710;2023-11-19T00:08:56;11.48;;;10.25;;
43540;SDS011;29549;40.386;-3.710;2023-11-19T00:09:07;11.23;;;10.07;;
43540;SDS011;29549;40.386;-3.710;2023-11-19T00:09:18;10.57;;;9.48;;
43540;SDS011;29549;40.386;-3.710;2023-11-19T00:09:28;10.10;;;9.03;;
43540;SDS011;29549;40.386;-3.710;2023-11-19T00:09:39;10.32;;;9.23;;
43540;SDS011;29549;40.386;-3.710;2023-11-19T00:09:50;10.75;;;9.57;;
43540;SDS011;29549;40.386;-3.710;2023-11-19T00:10:01;11.27;;;10.07;;
43540;SDS011;29549;40.386;-3.710;2023-11-19T00:10:14;11.05;;;9.95;;
43540;SDS011;29549;40.386;-3.710;2023-11-19T00:10:28;11.02;;;9.93;;
43540;SDS011;29549;40.386;-3.710;2023-11-19T00:10:39;10.88;;;9.77;;
43540;SDS011;29549;40.386;-3.710;2023-11-19T00:10:50;11.20;;;10.00;;
43540;SDS011;29549;40.386;-3.710;2023-11-19T00:11:01;10.95;;;9.85;;
43540;SDS011;29549;40.386;-3.710;2023-11-19T00:11:13;11.18;;;10.00;;
43540;SDS011;29549;40.386;-3.710;2023-11-19T00:11:25;11.95;;;10.43;;
43540;SDS011;29549;40.386;-3.710;2023-11-19T00:11:36;12.73;;;10.27;;
43540;SDS011;29549;40.386;-3.710;2023-11-19T00:11:47;12.52;;;10.13;;
43540;SDS011;29549;40.386;-3.710;2023-11-19T00:11:58;12.30;;;9.80;;
43540;SDS011;29549;40.386;-3.710;2023-11-19T00:12:10;11.48;;;9.60;;
43540;SDS011;29549;40.386;-3.710;2023-11-19T00:12:20;12.32;;;9.90;;
43540;SDS011;29549;40.386;-3.710;2023-11-19T00:12:32;13.07;;;10.23;;
43540;SDS011;29549;40.386;-3.710;2023-11-19T00:12:44;12.85;;;10.40;;
43540;SDS011;29549;40.386;-3.710;2023-11-19T00:12:56;12.45;;;9.90;;
43540;SDS011;29549;40.386;-3.710;2023-11-19T00:13:07;11.57;;;9.60;;
43540;SDS011;29549;40.386;-3.710;2023-11-19T00:13:18;11.23;;;9.85;;
43540;SDS011;29549;40.386;-3.710;2023-11-19T00:13:28;11.85;;;10.48;;
43540;SDS011;29549;40.386;-3.710;2023-11-19T00:13:39;11.48;;;10.25;;
43540;SDS011;29549;40.386;-3.710;2023-11-19T00:13:50;11.25;;;10.02;;
43540;SDS011;29549;40.386;-3.710;2023-11-19T00:14:01;11.63;;;10.00;;
43540;SDS011;29549;40.386;-3.710;2023-11-19T00:14:12;11.80;;;10.00;;
43540;SDS011;29549;40.386;-3.710;2023-11-19T00:14:23;12.68;;;9.73;;
43540;SDS011;29549;40.386;-3.710;2023-11-19T00:14:35;12.70;;;9.70;;
43540;SDS011;29549;40.386;-3.710;2023-11-19T00:14:46;14.45;;;10.07;;
43540;SDS011;29549;40.386;-3.710;2023-11-19T00:14:57;13.27;;;10.20;;
43540;SDS011;29549;40.386;-3.710;2023-11-19T00:15:07;12.73;;;10.07;;
43540;SDS011;29549;40.386;-3.710;2023-11-19T00:15:21;11.90;;;10.43;;
43540;SDS011;29549;40.386;-3.710;2023-11-19T00:15:34;11.80;;;10.60;;
43540;SDS011;29549;40.386;-3.710;2023-11-19T00:15:44;11.68;;;10.48;;
43540;SDS011;29549;40.386;-3.710;2023-11-19T00:15:55;11.43;;;10.23;;
43540;SDS011;29549;40.386;-3.710;2023-11-19T00:16:07;11.27;;;10.07;;
43540;SDS011;29549;40.386;-3.710;2023-11-19T00:16:19;12.18;;;9.98;;
43540;SDS011;29549;40.386;-3.710;2023-11-19T00:16:30;12.63;;;10.13;;
43540;SDS011;29549;40.386;-3.710;2023-11-19T00:16:42;12.07;;;10.27;;
43540;SDS011;29549;40.386;-3.710;2023-11-19T00:16:53;11.55;;;10.32;;
43540;SDS011;29549;40.386;-3.710;2023-11-19T00:17:03;12.50;;;10.45;;
43540;SDS011;29549;40.386;-3.710;2023-11-19T00:17:14;14.88;;;10.55;;
43540;SDS011;29549;40.386;-3.710;2023-11-19T00:17:25;14.03;;;10.50;;
43540;SDS011;29549;40.386;-3.710;2023-11-19T00:17:40;12.52;;;10.30;;
43540;SDS011;29549;40.386;-3.710;2023-11-19T00:17:54;11.98;;;10.15;;
43540;SDS011;29549;40.386;-3.710;2023-11-19T00:18:05;11.75;;;10.10;;
43540;SDS011;29549;40.386;-3.710;2023-11-19T00:18:16;11.85;;;10.40;;
43540;SDS011;29549;40.386;-3.710;2023-11-19T00:18:26;11.70;;;10.47;;
43540;SDS011;29549;40.386;-3.710;2023-11-19T00:18:37;11.82;;;10.55;;
43540;SDS011;29549;40.386;-3.710;2023-11-19T00:18:48;11.85;;;10.05;;
43540;SDS011;29549;40.386;-3.710;2023-11-19T00:19:00;12.25;;;10.20;;
43540;SDS011;29549;40.386;-3.710;2023-11-19T00:19:10;12.23;;;10.50;;
43540;SDS011;29549;40.386;-3.710;2023-11-19T00:19:21;12.27;;;10.70;;
43540;SDS011;29549;40.386;-3.710;2023-11-19T00:19:32;12.00;;;10.57;;
43540;SDS011;29549;40.386;-3.710;2023-11-19T00:19:43;12.00;;;10.48;;
43540;SDS011;29549;40.386;-3.710;2023-11-19T00:19:54;12.23;;;10.57;;
43540;SDS011;29549;40.386;-3.710;2023-11-19T00:20:05;13.20;;;10.32;;
43540;SDS011;29549;40.386;-3.710;2023-11-19T00:20:17;16.15;;;10.30;;
43540;SDS011;29549;40.386;-3.710;2023-11-19T00:20:29;16.23;;;10.07;;
43540;SDS011;29549;40.386;-3.710;2023-11-19T00:20:39;15.20;;;9.90;;
43540;SDS011;29549;40.386;-3.710;2023-11-19T00:20:50;14.32;;;9.85;;
43540;SDS011;29549;40.386;-3.710;2023-11-19T00:21:01;13.00;;;9.80;;
43540;SDS011;29549;40.386;-3.710;2023-11-19T00:21:12;12.48;;;9.98;;
43540;SDS011;29549;40.386;-3.710;2023-11-19T00:21:23;12.47;;;10.10;;
43540;SDS011;29549;40.386;-3.710;2023-11-19T00:21:33;14.40;;;10.75;;
43540;SDS011;29549;40.386;-3.710;2023-11-19T00:21:44;13.65;;;10.57;;
43540;SDS011;29549;40.386;-3.710;2023-11-19T00:21:56;13.75;;;10.43;;
43540;SDS011;29549;40.386;-3.710;2023-11-19T00:22:06;12.45;;;9.77;;
43540;SDS011;29549;40.386;-3.710;2023-11-19T00:22:17;12.30;;;10.00;;
43540;SDS011;29549;40.386;-3.710;2023-11-19T00:22:28;11.60;;;10.07;;
43540;SDS011;29549;40.386;-3.710;2023-11-19T00:22:38;11.50;;;10.30;;
43540;SDS011;29549;40.386;-3.710;2023-11-19T00:22:49;11.68;;;10.45;;
43540;SDS011;29549;40.386;-3.710;2023-11-19T00:23:03;12.35;;;10.48;;
43540;SDS011;29549;40.386;-3.710;2023-11-19T00:23:13;12.32;;;10.32;;
43540;SDS011;29549;40.386;-3.710;2023-11-19T00:23:24;11.70;;;9.83;;
43540;SDS011;29549;40.386;-3.710;2023-11-19T00:23:35;11.07;;;9.82;;
43540;SDS011;29549;40.386;-3.710;2023-11-19T00:23:46;11.43;;;9.90;;
43540;SDS011;29549;40.386;-3.710;2023-11-19T00:23:57;13.57;;;10.32;;
43540;SDS011;29549;40.386;-3.710;2023-11-19T00:24:08;14.00;;;10.50;;
43540;SDS011;29549;40.386;-3.710;2023-11-19T00:24:19;13.50;;;11.03;;
43540;SDS011;29549;40.386;-3.710;2023-11-19T00:24:30;13.07;;;10.95;;
43540;SDS011;29549;40.386;-3.710;2023-11-19T00:24:41;14.13;;;10.82;;
43540;SDS011;29549;40.386;-3.710;2023-11-19T00:24:52;12.88;;;10.45;;
43540;SDS011;29549;40.386;-3.710;2023-11-19T00:25:03;12.60;;;10.40;;
43540;SDS011;29549;40.386;-3.710;2023-11-19T00:25:15;13.18;;;10.57;;
43540;SDS011;29549;40.386;-3.710;2023-11-19T00:25:26;14.25;;;10.93;;
43540;SDS011;29549;40.386;-3.710;2023-11-19T00:25:37;14.33;;;11.17;;
43540;SDS011;29549;40.386;-3.710;2023-11-19T00:25:48;12.38;;;10.70;;
43540;SDS011;29549;40.386;-3.710;2023-11-19T00:25:59;12.50;;;10.55;;
43540;SDS011;29549;40.386;-3.710;2023-11-19T00:26:10;12.40;;;10.32;;
43540;SDS011;29549;40.386;-3.710;2023-11-19T00:26:21;12.20;;;10.47;;
43540;SDS011;29549;40.386;-3.710;2023-11-19T00:26:31;11.85;;;10.40;;
43540;SDS011;29549;40.386;-3.710;2023-11-19T00:26:42;11.85;;;10.55;;
43540;SDS011;29549;40.386;-3.710;2023-11-19T00:26:53;11.98;;;10.70;;
43540;SDS011;29549;40.386;-3.710;2023-11-19T00:27:04;11.82;;;10.63;;
43540;SDS011;29549;40.386;-3.710;2023-11-19T00:27:14;12.10;;;10.83;;
43540;SDS011;29549;40.386;-3.710;2023-11-19T00:27:25;12.07;;;10.77;;
43540;SDS011;29549;40.386;-3.710;2023-11-19T00:27:36;12.10;;;10.80;;
43540;SDS011;29549;40.386;-3.710;2023-11-19T00:27:50;11.82;;;10.57;;
43540;SDS011;29549;40.386;-3.710;2023-11-19T00:28:03;12.02;;;10.57;;
43540;SDS011;29549;40.386;-3.710;2023-11-19T00:28:14;13.23;;;10.38;;
43540;SDS011;29549;40.386;-3.710;2023-11-19T00:28:24;13.02;;;10.18;;
43540;SDS011;29549;40.386;-3.710;2023-11-19T00:28:35;12.03;;;10.20;;
43540;SDS011;29549;40.386;-3.710;2023-11-19T00:28:48;12.27;;;10.25;;
43540;SDS011;29549;40.386;-3.710;2023-11-19T00:28:59;12.40;;;10.80;;
43540;SDS011;29549;40.386;-3.710;2023-11-19T00:29:10;13.15;;;10.52;;
43540;SDS011;29549;40.386;-3.710;2023-11-19T00:29:21;14.05;;;10.68;;
43540;SDS011;29549;40.386;-3.710;2023-11-19T00:29:31;13.98;;;10.55;;
43540;SDS011;29549;40.386;-3.710;2023-11-19T00:29:42;11.83;;;10.40;;
43540;SDS011;29549;40.386;-3.710;2023-11-19T00:29:56;11.52;;;10.32;;
43540;SDS011;29549;40.386;-3.710;2023-11-19T00:30:07;11.82;;;10.62;;
43540;SDS011;29549;40.386;-3.710;2023-11-19T00:30:18;11.88;;;10.65;;
43540;SDS011;29549;40.386;-3.710;2023-11-19T00:30:29;12.57;;;10.38;;
43540;SDS011;29549;40.386;-3.710;2023-11-19T00:30:41;12.23;;;10.38;;
43540;SDS011;29549;40.386;-3.710;2023-11-19T00:30:51;12.03;;;10.47;;
43540;SDS011;29549;40.386;-3.710;2023-11-19T00:31:03;12.88;;;10.85;;
43540;SDS011;29549;40.386;-3.710;2023-11-19T00:31:14;13.00;;;10.70;;
43540;SDS011;29549;40.386;-3.710;2023-11-19T00:31:24;12.70;;;10.57;;
43540;SDS011;29549;40.386;-3.710;2023-11-19T00:31:37;12.48;;;10.50;;
43540;SDS011;29549;40.386;-3.710;2023-11-19T00:31:48;12.88;;;10.57;;
43540;SDS011;29549;40.386;-3.710;2023-11-19T00:31:59;12.32;;;10.95;;
43540;SDS011;29549;40.386;-3.710;2023-11-19T00:32:10;12.55;;;11.25;;
43540;SDS011;29549;40.386;-3.710;2023-11-19T00:32:21;12.60;;;11.30;;
43540;SDS011;29549;40.386;-3.710;2023-11-19T00:32:32;12.68;;;11.32;;
43540;SDS011;29549;40.386;-3.710;2023-11-19T00:32:43;17.17;;;15.15;;
43540;SDS011;29549;40.386;-3.710;2023-11-19T00:32:55;27.05;;;22.80;;
43540;SDS011;29549;40.386;-3.710;2023-11-19T00:33:06;31.23;;;26.65;;
43540;SDS011;29549;40.386;-3.710;2023-11-19T00:33:16;25.98;;;22.02;;
43540;SDS011;29549;40.386;-3.710;2023-11-19T00:33:27;20.98;;;17.88;;
43540;SDS011;29549;40.386;-3.710;2023-11-19T00:33:39;16.73;;;13.93;;
43540;SDS011;29549;40.386;-3.710;2023-11-19T00:33:50;14.77;;;12.15;;
43540;SDS011;29549;40.386;-3.710;2023-11-19T00:34:00;13.35;;;11.15;;
43540;SDS011;29549;40.386;-3.710;2023-11-19T00:34:12;13.50;;;11.45;;
43540;SDS011;29549;40.386;-3.710;2023-11-19T00:34:23;14.45;;;11.93;;
43540;SDS011;29549;40.386;-3.710;2023-11-19T00:34:34;14.43;;;12.10;;
43540;SDS011;29549;40.386;-3.710;2023-11-19T00:34:44;15.48;;;11.70;;
43540;SDS011;29549;40.386;-3.710;2023-11-19T00:34:57;13.73;;;11.18;;
43540;SDS011;29549;40.386;-3.710;2023-11-19T00:35:07;13.15;;;11.15;;
43540;SDS011;29549;40.386;-3.710;2023-11-19T00:35:20;12.18;;;10.80;;
43540;SDS011;29549;40.386;-3.710;2023-11-19T00:35:30;12.07;;;10.50;;
43540;SDS011;29549;40.386;-3.710;2023-11-19T00:35:42;13.68;;;10.80;;
43540;SDS011;29549;40.386;-3.710;2023-11-19T00:35:53;13.65;;;10.90;;
43540;SDS011;29549;40.386;-3.710;2023-11-19T00:36:04;12.57;;;10.93;;
43540;SDS011;29549;40.386;-3.710;2023-11-19T00:36:15;12.90;;;11.40;;
43540;SDS011;29549;40.386;-3.710;2023-11-19T00:36:26;13.55;;;11.90;;
43540;SDS011;29549;40.386;-3.710;2023-11-19T00:36:37;14.18;;;12.27;;
43540;SDS011;29549;40.386;-3.710;2023-11-19T00:36:47;13.80;;;12.07;;
43540;SDS011;29549;40.386;-3.710;2023-11-19T00:36:58;13.57;;;12.13;;
43540;SDS011;29549;40.386;-3.710;2023-11-19T00:37:09;13.20;;;11.70;;
43540;SDS011;29549;40.386;-3.710;2023-11-19T00:37:20;13.85;;;11.77;;
43540;SDS011;29549;40.386;-3.710;2023-11-19T00:37:31;13.25;;;11.52;;
43540;SDS011;29549;40.386;-3.710;2023-11-19T00:37:42;12.88;;;11.52;;
43540;SDS011;29549;40.386;-3.710;2023-11-19T00:37:55;14.13;;;11.40;;
43540;SDS011;29549;40.386;-3.710;2023-11-19T00:38:06;14.68;;;11.13;;
43540;SDS011;29549;40.386;-3.710;2023-11-19T00:38:17;13.57;;;10.63;;
43540;SDS011;29549;40.386;-3.710;2023-11-19T00:38:27;13.13;;;10.77;;
43540;SDS011;29549;40.386;-3.710;2023-11-19T00:38:38;13.70;;;11.38;;
43540;SDS011;29549;40.386;-3.710;2023-11-19T00:38:49;14.40;;;11.77;;
43540;SDS011;29549;40.386;-3.710;2023-11-19T00:39:00;12.93;;;11.52;;
43540;SDS011;29549;40.386;-3.710;2023-11-19T00:39:11;12.53;;;11.23;;
43540;SDS011;29549;40.386;-3.710;2023-11-19T00:39:21;12.95;;;11.60;;
43540;SDS011;29549;40.386;-3.710;2023-11-19T00:39:32;13.57;;;11.45;;
43540;SDS011;29549;40.386;-3.710;2023-11-19T00:39:43;13.10;;;11.27;;
43540;SDS011;29549;40.386;-3.710;2023-11-19T00:39:54;12.20;;;10.87;;
43540;SDS011;29549;40.386;-3.710;2023-11-19T00:40:06;12.05;;;10.85;;
43540;SDS011;29549;40.386;-3.710;2023-11-19T00:40:18;12.30;;;11.05;;
43540;SDS011;29549;40.386;-3.710;2023-11-19T00:40:31;13.07;;;11.68;;
43540;SDS011;29549;40.386;-3.710;2023-11-19T00:40:42;13.20;;;11.65;;
43540;SDS011;29549;40.386;-3.710;2023-11-19T00:40:54;13.52;;;11.68;;
43540;SDS011;29549;40.386;-3.710;2023-11-19T00:41:05;14.02;;;11.80;;
43540;SDS011;29549;40.386;-3.710;2023-11-19T00:41:16;14.25;;;12.15;;
43540;SDS011;29549;40.386;-3.710;2023-11-19T00:41:27;13.90;;;12.13;;
43540;SDS011;29549;40.386;-3.710;2023-11-19T00:41:37;13.98;;;12.00;;
43540;SDS011;29549;40.386;-3.710;2023-11-19T00:41:48;12.97;;;11.50;;
43540;SDS011;29549;40.386;-3.710;2023-11-19T00:41:59;12.35;;;11.02;;
43540;SDS011;29549;40.386;-3.710;2023-11-19T00:42:10;12.80;;;11.38;;
43540;SDS011;29549;40.386;-3.710;2023-11-19T00:42:20;13.27;;;11.48;;
43540;SDS011;29549;40.386;-3.710;2023-11-19T00:42:31;13.13;;;11.27;;
43540;SDS011;29549;40.386;-3.710;2023-11-19T00:42:42;12.30;;;10.93;;
43540;SDS011;29549;40.386;-3.710;2023-11-19T00:42:53;12.75;;;11.38;;
43540;SDS011;29549;40.386;-3.710;2023-11-19T00:43:04;13.32;;;11.63;;
43540;SDS011;29549;40.386;-3.710;2023-11-19T00:43:14;16.50;;;11.65;;
43540;SDS011;29549;40.386;-3.710;2023-11-19T00:43:25;16.38;;;11.32;;
43540;SDS011;29549;40.386;-3.710;2023-11-19T00:43:37;16.08;;;11.50;;
43540;SDS011;29549;40.386;-3.710;2023-11-19T00:43:48;12.73;;;11.23;;
43540;SDS011;29549;40.386;-3.710;2023-11-19T00:43:59;12.43;;;11.13;;
43540;SDS011;29549;40.386;-3.710;2023-11-19T00:44:09;12.83;;;11.47;;
43540;SDS011;29549;40.386;-3.710;2023-11-19T00:44:20;13.77;;;11.88;;
43540;SDS011;29549;40.386;-3.710;2023-11-19T00:44:31;14.68;;;12.00;;
43540;SDS011;29549;40.386;-3.710;2023-11-19T00:44:42;14.68;;;11.60;;
43540;SDS011;29549;40.386;-3.710;2023-11-19T00:44:53;14.45;;;11.48;;
43540;SDS011;29549;40.386;-3.710;2023-11-19T00:45:04;14.02;;;11.43;;
43540;SDS011;29549;40.386;-3.710;2023-11-19T00:45:19;13.75;;;11.57;;
43540;SDS011;29549;40.386;-3.710;2023-11-19T00:45:30;13.25;;;11.75;;
43540;SDS011;29549;40.386;-3.710;2023-11-19T00:45:41;13.35;;;11.90;;
43540;SDS011;29549;40.386;-3.710;2023-11-19T00:45:51;13.13;;;11.75;;
43540;SDS011;29549;40.386;-3.710;2023-11-19T00:46:02;12.90;;;11.50;;
43540;SDS011;29549;40.386;-3.710;2023-11-19T00:46:13;13.23;;;11.82;;
43540;SDS011;29549;40.386;-3.710;2023-11-19T00:46:24;14.48;;;11.95;;
43540;SDS011;29549;40.386;-3.710;2023-11-19T00:46:34;13.93;;;11.43;;
43540;SDS011;29549;40.386;-3.710;2023-11-19T00:46:45;13.87;;;11.03;;
43540;SDS011;29549;40.386;-3.710;2023-11-19T00:46:56;12.80;;;11.15;;
43540;SDS011;29549;40.386;-3.710;2023-11-19T00:47:06;13.20;;;11.57;;
43540;SDS011;29549;40.386;-3.710;2023-11-19T00:47:17;13.35;;;11.95;;
43540;SDS011;29549;40.386;-3.710;2023-11-19T00:47:31;12.90;;;11.60;;
43540;SDS011;29549;40.386;-3.710;2023-11-19T00:47:42;12.65;;;11.35;;
43540;SDS011;29549;40.386;-3.710;2023-11-19T00:47:53;12.43;;;11.20;;
43540;SDS011;29549;40.386;-3.710;2023-11-19T00:48:03;13.02;;;11.52;;
43540;SDS011;29549;40.386;-3.710;2023-11-19T00:48:14;14.73;;;11.68;;
43540;SDS011;29549;40.386;-3.710;2023-11-19T00:48:25;15.30;;;11.95;;
43540;SDS011;29549;40.386;-3.710;2023-11-19T00:48:37;15.00;;;11.95;;
43540;SDS011;29549;40.386;-3.710;2023-11-19T00:48:47;13.27;;;11.48;;
43540;SDS011;29549;40.386;-3.710;2023-11-19T00:48:59;13.93;;;11.40;;
43540;SDS011;29549;40.386;-3.710;2023-11-19T00:49:11;13.52;;;11.55;;
43540;SDS011;29549;40.386;-3.710;2023-11-19T00:49:22;12.55;;;11.25;;
43540;SDS011;29549;40.386;-3.710;2023-11-19T00:49:32;12.40;;;11.10;;
43540;SDS011;29549;40.386;-3.710;2023-11-19T00:49:43;12.18;;;10.85;;
43540;SDS011;29549;40.386;-3.710;2023-11-19T00:49:54;12.38;;;11.05;;
43540;SDS011;29549;40.386;-3.710;2023-11-19T00:50:05;12.13;;;10.82;;
43540;SDS011;29549;40.386;-3.710;2023-11-19T00:50:16;12.60;;;11.27;;
43540;SDS011;29549;40.386;-3.710;2023-11-19T00:50:27;12.82;;;11.43;;
43540;SDS011;29549;40.386;-3.710;2023-11-19T00:50:39;13.63;;;11.73;;
43540;SDS011;29549;40.386;-3.710;2023-11-19T00:50:54;13.30;;;11.43;;
43540;SDS011;29549;40.386;-3.710;2023-11-19T00:51:04;13.35;;;11.32;;
43540;SDS011;29549;40.386;-3.710;2023-11-19T00:51:15;13.70;;;11.32;;
43540;SDS011;29549;40.386;-3.710;2023-11-19T00:51:26;13.23;;;10.85;;
43540;SDS011;29549;40.386;-3.710;2023-11-19T00:51:37;13.90;;;11.10;;
43540;SDS011;29549;40.386;-3.710;2023-11-19T00:51:48;13.10;;;11.13;;
43540;SDS011;29549;40.386;-3.710;2023-11-19T00:51:59;14.15;;;11.65;;
43540;SDS011;29549;40.386;-3.710;2023-11-19T00:52:10;14.43;;;11.97;;
43540;SDS011;29549;40.386;-3.710;2023-11-19T00:52:20;14.43;;;11.85;;
43540;SDS011;29549;40.386;-3.710;2023-11-19T00:52:32;14.63;;;11.82;;
43540;SDS011;29549;40.386;-3.710;2023-11-19T00:52:42;13.23;;;11.38;;
43540;SDS011;29549;40.386;-3.710;2023-11-19T00:52:53;12.77;;;11.38;;
43540;SDS011;29549;40.386;-3.710;2023-11-19T00:53:04;12.90;;;11.63;;
43540;SDS011;29549;40.386;-3.710;2023-11-19T00:53:15;13.10;;;11.80;;
43540;SDS011;29549;40.386;-3.710;2023-11-19T00:53:26;12.70;;;11.45;;
43540;SDS011;29549;40.386;-3.710;2023-11-19T00:53:36;12.50;;;11.23;;
43540;SDS011;29549;40.386;-3.710;2023-11-19T00:53:47;12.85;;;11.55;;
43540;SDS011;29549;40.386;-3.710;2023-11-19T00:53:58;15.10;;;11.85;;
43540;SDS011;29549;40.386;-3.710;2023-11-19T00:54:09;14.07;;;11.45;;
43540;SDS011;29549;40.386;-3.710;2023-11-19T00:54:20;14.15;;;11.48;;
43540;SDS011;29549;40.386;-3.710;2023-11-19T00:54:30;14.02;;;11.70;;
43540;SDS011;29549;40.386;-3.710;2023-11-19T00:54:41;14.67;;;11.87;;
43540;SDS011;29549;40.386;-3.710;2023-11-19T00:54:52;13.70;;;11.55;;
43540;SDS011;29549;40.386;-3.710;2023-11-19T00:55:04;13.32;;;11.15;;
43540;SDS011;29549;40.386;-3.710;2023-11-19T00:55:15;12.65;;;10.77;;
43540;SDS011;29549;40.386;-3.710;2023-11-19T00:55:26;12.35;;;10.95;;
43540;SDS011;29549;40.386;-3.710;2023-11-19T00:55:37;11.88;;;10.68;;
43540;SDS011;29549;40.386;-3.710;2023-11-19T00:55:48;12.10;;;10.90;;
43540;SDS011;29549;40.386;-3.710;2023-11-19T00:55:59;12.55;;;11.02;;
43540;SDS011;29549;40.386;-3.710;2023-11-19T00:56:10;13.00;;;11.48;;
43540;SDS011;29549;40.386;-3.710;2023-11-19T00:56:22;14.02;;;11.50;;
43540;SDS011;29549;40.386;-3.710;2023-11-19T00:56:33;14.37;;;11.60;;
43540;SDS011;29549;40.386;-3.710;2023-11-19T00:56:43;13.88;;;11.27;;
43540;SDS011;29549;40.386;-3.710;2023-11-19T00:56:55;13.43;;;11.35;;
43540;SDS011;29549;40.386;-3.710;2023-11-19T00:57:05;12.90;;;11.50;;
43540;SDS011;29549;40.386;-3.710;2023-11-19T00:57:16;13.60;;;11.50;;
43540;SDS011;29549;40.386;-3.710;2023-11-19T00:57:27;13.43;;;11.13;;
43540;SDS011;29549;40.386;-3.710;2023-11-19T00:57:37;13.27;;;11.03;;
43540;SDS011;29549;40.386;-3.710;2023-11-19T00:57:51;13.75;;;11.45;;
43540;SDS011;29549;40.386;-3.710;2023-11-19T00:58:02;13.95;;;11.60;;
43540;SDS011;29549;40.386;-3.710;2023-11-19T00:58:13;13.63;;;11.50;;
43540;SDS011;29549;40.386;-3.710;2023-11-19T00:58:23;12.77;;;11.45;;
43540;SDS011;29549;40.386;-3.710;2023-11-19T00:58:34;12.70;;;11.40;;
43540;SDS011;29549;40.386;-3.710;2023-11-19T00:58:45;12.77;;;11.30;;
43540;SDS011;29549;40.386;-3.710;2023-11-19T00:58:56;12.70;;;11.10;;
43540;SDS011;29549;40.386;-3.710;2023-11-19T00:59:06;13.03;;;11.20;;
43540;SDS011;29549;40.386;-3.710;2023-11-19T00:59:18;15.60;;;11.63;;
43540;SDS011;29549;40.386;-3.710;2023-11-19T00:59:29;16.52;;;11.60;;
43540;SDS011;29549;40.386;-3.710;2023-11-19T00:59:42;16.00;;;11.25;;
43540;SDS011;29549;40.386;-3.710;2023-11-19T00:59:54;13.65;;;11.27;;
43540;SDS011;29549;40.386;-3.710;2023-11-19T01:00:05;13.10;;;11.45;;
43540;SDS011;29549;40.386;-3.710;2023-11-19T01:00:42;11.82;;;10.60;;
43540;SDS011;29549;40.386;-3.710;2023-11-19T01:00:55;11.93;;;10.55;;
43540;SDS011;29549;40.386;-3.710;2023-11-19T01:01:07;12.45;;;10.25;;
43540;SDS011;29549;40.386;-3.710;2023-11-19T01:01:18;13.43;;;10.63;;
43540;SDS011;29549;40.386;-3.710;2023-11-19T01:01:28;12.77;;;11.15;;
43540;SDS011;29549;40.386;-3.710;2023-11-19T01:01:40;12.63;;;11.27;;
43540;SDS011;29549;40.386;-3.710;2023-11-19T01:01:50;12.38;;;11.07;;
43540;SDS011;29549;40.386;-3.710;2023-11-19T01:02:01;12.43;;;11.13;;
43540;SDS011;29549;40.386;-3.710;2023-11-19T01:02:13;13.13;;;11.68;;
43540;SDS011;29549;40.386;-3.710;2023-11-19T01:02:24;13.32;;;11.88;;
43540;SDS011;29549;40.386;-3.710;2023-11-19T01:02:35;13.85;;;11.73;;
43540;SDS011;29549;40.386;-3.710;2023-11-19T01:02:46;13.38;;;11.15;;
43540;SDS011;29549;40.386;-3.710;2023-11-19T01:02:57;13.20;;;10.95;;
43540;SDS011;29549;40.386;-3.710;2023-11-19T01:03:10;12.65;;;10.65;;
43540;SDS011;29549;40.386;-3.710;2023-11-19T01:03:21;12.10;;;10.75;;
43540;SDS011;29549;40.386;-3.710;2023-11-19T01:03:32;12.07;;;10.53;;
43540;SDS011;29549;40.386;-3.710;2023-11-19T01:03:43;12.02;;;10.73;;
43540;SDS011;29549;40.386;-3.710;2023-11-19T01:03:53;11.95;;;10.68;;
43540;SDS011;29549;40.386;-3.710;2023-11-19T01:04:04;12.47;;;10.70;;
43540;SDS011;29549;40.386;-3.710;2023-11-19T01:04:15;13.10;;;10.88;;
43540;SDS011;29549;40.386;-3.710;2023-11-19T01:04:26;13.82;;;10.90;;
43540;SDS011;29549;40.386;-3.710;2023-11-19T01:04:36;12.70;;;10.82;;
43540;SDS011;29549;40.386;-3.710;2023-11-19T01:04:48;12.18;;;10.90;;